sensor_id;sensor_type;location;lat;lon;timestamp;pressure;altitude;pressure_sealevel;temperature
40199;BMP280;25906;43.536;26.068;2022-08-21T00:01:13;98085.19;;;23.04
40199;BMP280;25906;43.536;26.068;2022-08-21T00:04:04;98079.03;;;23.08
40199;BMP280;25906;43.536;26.068;2022-08-21T00:06:51;98082.44;;;23.06
40199;BMP280;25906;43.536;26.068;2022-08-21T00:09:36;98080.31;;;23.03
40199;BMP280;25906;43.536;26.068;2022-08-21T00:12:22;98079.66;;;23.02
40199;BMP280;25906;43.536;26.068;2022-08-21T00:15:10;98080.31;;;23.01
40199;BMP280;25906;43.536;26.068;2022-08-21T00:17:57;98080.97;;;22.97
40199;BMP280;25906;43.536;26.068;2022-08-21T00:20:46;98077.47;;;22.97
40199;BMP280;25906;43.536;26.068;2022-08-21T00:23:33;98075.41;;;22.93
40199;BMP280;25906;43.536;26.068;2022-08-21T00:26:19;98062.84;;;22.84
40199;BMP280;25906;43.536;26.068;2022-08-21T00:29:04;98058.75;;;22.85
40199;BMP280;25906;43.536;26.068;2022-08-21T00:31:50;98057.22;;;22.77
40199;BMP280;25906;43.536;26.068;2022-08-21T00:34:35;98048.22;;;22.72
40199;BMP280;25906;43.536;26.068;2022-08-21T00:37:21;98050.28;;;22.72
40199;BMP280;25906;43.536;26.068;2022-08-21T00:40:10;98044.59;;;22.58
40199;BMP280;25906;43.536;26.068;2022-08-21T00:42:57;98036.94;;;22.56
40199;BMP280;25906;43.536;26.068;2022-08-21T00:45:42;98028.72;;;22.58
40199;BMP280;25906;43.536;26.068;2022-08-21T00:48:28;98027.38;;;22.63
40199;BMP280;25906;43.536;26.068;2022-08-21T00:51:17;98028.78;;;22.62
40199;BMP280;25906;43.536;26.068;2022-08-21T00:54:09;98019.09;;;22.63
40199;BMP280;25906;43.536;26.068;2022-08-21T00:57:00;98018.25;;;22.49
40199;BMP280;25906;43.536;26.068;2022-08-21T00:59:49;98012.81;;;22.55
40199;BMP280;25906;43.536;26.068;2022-08-21T01:02:35;98010.13;;;22.59
40199;BMP280;25906;43.536;26.068;2022-08-21T01:05:21;98006.56;;;22.52
40199;BMP280;25906;43.536;26.068;2022-08-21T01:08:07;98008.00;;;22.57
40199;BMP280;25906;43.536;26.068;2022-08-21T01:10:53;98001.16;;;22.60
40199;BMP280;25906;43.536;26.068;2022-08-21T01:13:39;98005.94;;;22.60
40199;BMP280;25906;43.536;26.068;2022-08-21T01:16:31;98003.25;;;22.62
40199;BMP280;25906;43.536;26.068;2022-08-21T01:19:20;97999.94;;;22.75
40199;BMP280;25906;43.536;26.068;2022-08-21T01:22:06;97997.88;;;22.77
40199;BMP280;25906;43.536;26.068;2022-08-21T01:24:51;97991.66;;;22.75
40199;BMP280;25906;43.536;26.068;2022-08-21T01:27:37;97988.16;;;22.71
40199;BMP280;25906;43.536;26.068;2022-08-21T01:30:25;97972.97;;;22.72
40199;BMP280;25906;43.536;26.068;2022-08-21T01:33:11;97973.69;;;22.74
40199;BMP280;25906;43.536;26.068;2022-08-21T01:35:56;97970.25;;;22.74
40199;BMP280;25906;43.536;26.068;2022-08-21T01:38:41;97970.19;;;22.70
40199;BMP280;25906;43.536;26.068;2022-08-21T01:41:27;97962.59;;;22.68
40199;BMP280;25906;43.536;26.068;2022-08-21T01:44:12;97958.47;;;22.69
40199;BMP280;25906;43.536;26.068;2022-08-21T01:47:00;97957.56;;;22.51
40199;BMP280;25906;43.536;26.068;2022-08-21T01:49:45;97957.22;;;22.23
40199;BMP280;25906;43.536;26.068;2022-08-21T01:52:31;97950.44;;;22.32
40199;BMP280;25906;43.536;26.068;2022-08-21T01:55:18;97946.44;;;22.41
40199;BMP280;25906;43.536;26.068;2022-08-21T01:58:04;97934.75;;;22.44
40199;BMP280;25906;43.536;26.068;2022-08-21T02:00:49;97925.06;;;22.43
40199;BMP280;25906;43.536;26.068;2022-08-21T02:03:35;97923.66;;;22.39
40199;BMP280;25906;43.536;26.068;2022-08-21T02:06:20;97920.81;;;22.35
40199;BMP280;25906;43.536;26.068;2022-08-21T02:09:07;97911.22;;;22.38
40199;BMP280;25906;43.536;26.068;2022-08-21T02:11:53;97910.50;;;22.37
40199;BMP280;25906;43.536;26.068;2022-08-21T02:14:39;97906.38;;;22.38
40199;BMP280;25906;43.536;26.068;2022-08-21T02:17:25;97900.09;;;22.34
40199;BMP280;25906;43.536;26.068;2022-08-21T02:20:15;97904.97;;;22.35
40199;BMP280;25906;43.536;26.068;2022-08-21T02:23:01;97911.50;;;22.06
40199;BMP280;25906;43.536;26.068;2022-08-21T02:25:46;97913.00;;;22.15
40199;BMP280;25906;43.536;26.068;2022-08-21T02:28:32;97913.97;;;21.85
40199;BMP280;25906;43.536;26.068;2022-08-21T02:31:17;97895.38;;;21.38
40199;BMP280;25906;43.536;26.068;2022-08-21T02:34:03;97894.47;;;21.24
40199;BMP280;25906;43.536;26.068;2022-08-21T02:36:48;97885.53;;;21.26
40199;BMP280;25906;43.536;26.068;2022-08-21T02:39:34;97883.06;;;21.02
40199;BMP280;25906;43.536;26.068;2022-08-21T02:42:19;97874.91;;;21.06
40199;BMP280;25906;43.536;26.068;2022-08-21T02:45:06;97877.63;;;21.04
40199;BMP280;25906;43.536;26.068;2022-08-21T02:47:55;97872.13;;;21.04
40199;BMP280;25906;43.536;26.068;2022-08-21T02:50:51;97881.41;;;21.26
40199;BMP280;25906;43.536;26.068;2022-08-21T02:53:38;97879.41;;;21.29
40199;BMP280;25906;43.536;26.068;2022-08-21T02:56:23;97870.84;;;21.11
40199;BMP280;25906;43.536;26.068;2022-08-21T02:59:08;97869.25;;;21.41
40199;BMP280;25906;43.536;26.068;2022-08-21T03:01:54;97870.03;;;21.48
40199;BMP280;25906;43.536;26.068;2022-08-21T03:04:40;97872.22;;;21.55
40199;BMP280;25906;43.536;26.068;2022-08-21T03:07:26;97879.41;;;21.31
40199;BMP280;25906;43.536;26.068;2022-08-21T03:10:11;97866.69;;;21.10
40199;BMP280;25906;43.536;26.068;2022-08-21T03:12:57;97859.91;;;20.76
40199;BMP280;25906;43.536;26.068;2022-08-21T03:15:43;97861.44;;;20.46
40199;BMP280;25906;43.536;26.068;2022-08-21T03:18:28;97860.25;;;20.22
40199;BMP280;25906;43.536;26.068;2022-08-21T03:21:14;97858.06;;;20.14
40199;BMP280;25906;43.536;26.068;2022-08-21T03:23:59;97850.19;;;20.01
40199;BMP280;25906;43.536;26.068;2022-08-21T03:26:45;97854.34;;;20.02
40199;BMP280;25906;43.536;26.068;2022-08-21T03:29:30;97856.25;;;19.94
40199;BMP280;25906;43.536;26.068;2022-08-21T03:32:15;97857.06;;;20.00
40199;BMP280;25906;43.536;26.068;2022-08-21T03:35:02;97853.66;;;20.02
40199;BMP280;25906;43.536;26.068;2022-08-21T03:37:47;97861.91;;;20.02
40199;BMP280;25906;43.536;26.068;2022-08-21T03:40:33;97867.06;;;20.19
40199;BMP280;25906;43.536;26.068;2022-08-21T03:43:18;97863.56;;;20.49
40199;BMP280;25906;43.536;26.068;2022-08-21T03:46:05;97864.75;;;20.76
40199;BMP280;25906;43.536;26.068;2022-08-21T03:48:50;97879.38;;;20.86
40199;BMP280;25906;43.536;26.068;2022-08-21T03:51:37;97883.94;;;21.13
40199;BMP280;25906;43.536;26.068;2022-08-21T03:54:23;97895.94;;;21.29
40199;BMP280;25906;43.536;26.068;2022-08-21T03:57:09;97906.94;;;21.29
40199;BMP280;25906;43.536;26.068;2022-08-21T03:59:55;97920.41;;;21.11
40199;BMP280;25906;43.536;26.068;2022-08-21T04:02:41;97926.34;;;20.98
40199;BMP280;25906;43.536;26.068;2022-08-21T04:05:28;97929.75;;;20.96
40199;BMP280;25906;43.536;26.068;2022-08-21T04:08:15;97933.91;;;20.95
40199;BMP280;25906;43.536;26.068;2022-08-21T04:11:03;97941.63;;;21.05
40199;BMP280;25906;43.536;26.068;2022-08-21T04:13:50;97949.53;;;21.24
40199;BMP280;25906;43.536;26.068;2022-08-21T04:16:36;97945.66;;;21.39
40199;BMP280;25906;43.536;26.068;2022-08-21T04:19:21;97952.16;;;21.57
40199;BMP280;25906;43.536;26.068;2022-08-21T04:22:08;97977.88;;;21.71
40199;BMP280;25906;43.536;26.068;2022-08-21T04:24:53;97965.66;;;21.84
40199;BMP280;25906;43.536;26.068;2022-08-21T04:27:39;97969.25;;;21.95
40199;BMP280;25906;43.536;26.068;2022-08-21T04:30:25;97965.28;;;22.05
40199;BMP280;25906;43.536;26.068;2022-08-21T04:33:11;97970.91;;;22.15
40199;BMP280;25906;43.536;26.068;2022-08-21T04:35:56;97968.00;;;22.03
40199;BMP280;25906;43.536;26.068;2022-08-21T04:38:42;97965.31;;;22.09
40199;BMP280;25906;43.536;26.068;2022-08-21T04:41:27;97965.59;;;22.31
40199;BMP280;25906;43.536;26.068;2022-08-21T04:44:13;97975.34;;;22.38
40199;BMP280;25906;43.536;26.068;2022-08-21T04:46:58;97973.47;;;22.54
40199;BMP280;25906;43.536;26.068;2022-08-21T04:49:44;97965.19;;;22.56
40199;BMP280;25906;43.536;26.068;2022-08-21T04:52:30;97962.59;;;22.66
40199;BMP280;25906;43.536;26.068;2022-08-21T04:55:16;97966.84;;;22.77
40199;BMP280;25906;43.536;26.068;2022-08-21T04:58:07;97973.81;;;22.82
40199;BMP280;25906;43.536;26.068;2022-08-21T05:00:56;97974.41;;;22.75
40199;BMP280;25906;43.536;26.068;2022-08-21T05:03:42;97968.81;;;22.69
40199;BMP280;25906;43.536;26.068;2022-08-21T05:06:30;97986.91;;;22.83
40199;BMP280;25906;43.536;26.068;2022-08-21T05:09:18;97987.06;;;22.95
40199;BMP280;25906;43.536;26.068;2022-08-21T05:12:04;97986.50;;;23.09
40199;BMP280;25906;43.536;26.068;2022-08-21T05:14:50;97987.16;;;23.07
40199;BMP280;25906;43.536;26.068;2022-08-21T05:17:36;97988.59;;;23.12
40199;BMP280;25906;43.536;26.068;2022-08-21T05:20:21;97987.97;;;23.17
40199;BMP280;25906;43.536;26.068;2022-08-21T05:23:13;97991.38;;;23.14
40199;BMP280;25906;43.536;26.068;2022-08-21T05:25:58;97989.34;;;23.20
40199;BMP280;25906;43.536;26.068;2022-08-21T05:28:44;97997.66;;;23.20
40199;BMP280;25906;43.536;26.068;2022-08-21T05:31:30;97995.03;;;23.36
40199;BMP280;25906;43.536;26.068;2022-08-21T05:34:19;97992.28;;;23.36
40199;BMP280;25906;43.536;26.068;2022-08-21T05:37:05;97993.72;;;23.43
40199;BMP280;25906;43.536;26.068;2022-08-21T05:39:50;97992.34;;;23.46
40199;BMP280;25906;43.536;26.068;2022-08-21T05:42:36;97997.06;;;23.32
40199;BMP280;25906;43.536;26.068;2022-08-21T05:45:27;97988.94;;;23.52
40199;BMP280;25906;43.536;26.068;2022-08-21T05:48:19;97987.47;;;23.39
40199;BMP280;25906;43.536;26.068;2022-08-21T05:51:07;97997.28;;;23.57
40199;BMP280;25906;43.536;26.068;2022-08-21T05:53:53;97989.84;;;23.80
40199;BMP280;25906;43.536;26.068;2022-08-21T05:56:38;97991.31;;;23.96
40199;BMP280;25906;43.536;26.068;2022-08-21T05:59:24;97991.41;;;24.04
40199;BMP280;25906;43.536;26.068;2022-08-21T06:02:09;97992.13;;;24.11
40199;BMP280;25906;43.536;26.068;2022-08-21T06:04:56;98000.44;;;24.19
40199;BMP280;25906;43.536;26.068;2022-08-21T06:07:41;97996.41;;;24.41
40199;BMP280;25906;43.536;26.068;2022-08-21T06:10:27;98004.06;;;24.51
40199;BMP280;25906;43.536;26.068;2022-08-21T06:13:13;97997.81;;;24.50
40199;BMP280;25906;43.536;26.068;2022-08-21T06:16:08;98011.03;;;24.71
40199;BMP280;25906;43.536;26.068;2022-08-21T06:18:54;98012.44;;;24.66
40199;BMP280;25906;43.536;26.068;2022-08-21T06:21:39;98008.28;;;24.77
40199;BMP280;25906;43.536;26.068;2022-08-21T06:24:25;98003.47;;;24.86
40199;BMP280;25906;43.536;26.068;2022-08-21T06:27:10;98010.41;;;24.99
40199;BMP280;25906;43.536;26.068;2022-08-21T06:29:57;98010.44;;;25.04
40199;BMP280;25906;43.536;26.068;2022-08-21T06:32:42;98007.69;;;25.18
40199;BMP280;25906;43.536;26.068;2022-08-21T06:35:28;98011.13;;;25.27
40199;BMP280;25906;43.536;26.068;2022-08-21T06:38:14;98010.47;;;25.42
40199;BMP280;25906;43.536;26.068;2022-08-21T06:40:59;98013.91;;;25.46
40199;BMP280;25906;43.536;26.068;2022-08-21T06:43:45;98014.63;;;25.57
40199;BMP280;25906;43.536;26.068;2022-08-21T06:46:31;98016.69;;;25.72
40199;BMP280;25906;43.536;26.068;2022-08-21T06:49:16;98014.59;;;25.80
40199;BMP280;25906;43.536;26.068;2022-08-21T06:52:02;98012.50;;;25.83
40199;BMP280;25906;43.536;26.068;2022-08-21T06:54:48;98030.50;;;26.02
40199;BMP280;25906;43.536;26.068;2022-08-21T06:57:33;98019.38;;;26.11
40199;BMP280;25906;43.536;26.068;2022-08-21T07:00:19;98020.03;;;26.24
40199;BMP280;25906;43.536;26.068;2022-08-21T07:03:05;98017.94;;;26.20
40199;BMP280;25906;43.536;26.068;2022-08-21T07:05:50;98015.84;;;26.23
40199;BMP280;25906;43.536;26.068;2022-08-21T07:08:37;98019.28;;;26.31
40199;BMP280;25906;43.536;26.068;2022-08-21T07:11:24;98008.84;;;26.40
40199;BMP280;25906;43.536;26.068;2022-08-21T07:14:09;98006.63;;;26.66
40199;BMP280;25906;43.536;26.068;2022-08-21T07:16:55;98003.81;;;26.72
40199;BMP280;25906;43.536;26.068;2022-08-21T07:19:40;97997.53;;;26.77
40199;BMP280;25906;43.536;26.068;2022-08-21T07:22:26;98005.13;;;26.90
40199;BMP280;25906;43.536;26.068;2022-08-21T07:25:12;98001.63;;;26.94
40199;BMP280;25906;43.536;26.068;2022-08-21T07:27:58;97996.72;;;26.96
40199;BMP280;25906;43.536;26.068;2022-08-21T07:30:43;97993.78;;;27.16
40199;BMP280;25906;43.536;26.068;2022-08-21T07:33:31;97985.66;;;26.88
40199;BMP280;25906;43.536;26.068;2022-08-21T07:36:17;97999.41;;;27.06
40199;BMP280;25906;43.536;26.068;2022-08-21T07:39:03;97988.03;;;27.42
40199;BMP280;25906;43.536;26.068;2022-08-21T07:41:48;97989.84;;;27.67
40199;BMP280;25906;43.536;26.068;2022-08-21T07:44:33;97979.25;;;27.81
40199;BMP280;25906;43.536;26.068;2022-08-21T07:47:19;97984.72;;;27.91
40199;BMP280;25906;43.536;26.068;2022-08-21T07:50:06;97982.66;;;27.87
40199;BMP280;25906;43.536;26.068;2022-08-21T07:52:51;97987.44;;;27.97
40199;BMP280;25906;43.536;26.068;2022-08-21T07:55:38;97978.91;;;28.13
40199;BMP280;25906;43.536;26.068;2022-08-21T07:58:23;97975.88;;;27.71
40199;BMP280;25906;43.536;26.068;2022-08-21T08:01:09;97973.09;;;27.75
40199;BMP280;25906;43.536;26.068;2022-08-21T08:03:55;97967.19;;;28.02
40199;BMP280;25906;43.536;26.068;2022-08-21T08:06:41;97970.22;;;27.81
40199;BMP280;25906;43.536;26.068;2022-08-21T08:09:27;97969.63;;;27.72
40199;BMP280;25906;43.536;26.068;2022-08-21T08:12:12;97964.28;;;28.12
40199;BMP280;25906;43.536;26.068;2022-08-21T08:14:59;97955.41;;;28.50
40199;BMP280;25906;43.536;26.068;2022-08-21T08:17:45;97962.72;;;28.75
40199;BMP280;25906;43.536;26.068;2022-08-21T08:20:30;97964.00;;;28.82
40199;BMP280;25906;43.536;26.068;2022-08-21T08:23:16;97964.47;;;28.94
40199;BMP280;25906;43.536;26.068;2022-08-21T08:26:01;97955.97;;;29.04
40199;BMP280;25906;43.536;26.068;2022-08-21T08:28:50;97953.78;;;29.08
40199;BMP280;25906;43.536;26.068;2022-08-21T08:31:36;97955.41;;;29.33
40199;BMP280;25906;43.536;26.068;2022-08-21T08:34:21;97950.34;;;29.44
40199;BMP280;25906;43.536;26.068;2022-08-21T08:37:09;97955.84;;;29.50
40199;BMP280;25906;43.536;26.068;2022-08-21T08:39:54;97945.69;;;29.32
40199;BMP280;25906;43.536;26.068;2022-08-21T08:42:41;97945.84;;;29.24
40199;BMP280;25906;43.536;26.068;2022-08-21T08:45:28;97941.56;;;29.29
40199;BMP280;25906;43.536;26.068;2022-08-21T08:51:51;97931.81;;;29.28
40199;BMP280;25906;43.536;26.068;2022-08-21T08:54:45;97932.25;;;29.43
40199;BMP280;25906;43.536;26.068;2022-08-21T08:57:35;97923.94;;;29.39
40199;BMP280;25906;43.536;26.068;2022-08-21T09:00:23;97922.41;;;29.46
40199;BMP280;25906;43.536;26.068;2022-08-21T09:03:09;97926.53;;;29.49
40199;BMP280;25906;43.536;26.068;2022-08-21T09:08:59;97913.31;;;29.47
40199;BMP280;25906;43.536;26.068;2022-08-21T09:15:12;97909.09;;;29.84
40199;BMP280;25906;43.536;26.068;2022-08-21T09:21:07;97904.22;;;30.15
40199;BMP280;25906;43.536;26.068;2022-08-21T09:24:06;97893.03;;;29.49
40199;BMP280;25906;43.536;26.068;2022-08-21T09:27:12;97889.97;;;29.96
40199;BMP280;25906;43.536;26.068;2022-08-21T09:29:57;97884.97;;;30.31
40199;BMP280;25906;43.536;26.068;2022-08-21T09:32:43;97878.94;;;30.51
40199;BMP280;25906;43.536;26.068;2022-08-21T09:35:29;97881.97;;;30.95
40199;BMP280;25906;43.536;26.068;2022-08-21T09:38:25;97879.44;;;30.85
40199;BMP280;25906;43.536;26.068;2022-08-21T09:41:12;97872.19;;;30.68
40199;BMP280;25906;43.536;26.068;2022-08-21T09:43:58;97874.78;;;31.02
40199;BMP280;25906;43.536;26.068;2022-08-21T09:46:49;97873.66;;;31.17
40199;BMP280;25906;43.536;26.068;2022-08-21T09:49:38;97868.97;;;31.10
40199;BMP280;25906;43.536;26.068;2022-08-21T09:52:24;97871.50;;;31.19
40199;BMP280;25906;43.536;26.068;2022-08-21T09:55:16;97876.09;;;31.05
40199;BMP280;25906;43.536;26.068;2022-08-21T09:58:31;97868.97;;;31.10
40199;BMP280;25906;43.536;26.068;2022-08-21T10:01:21;97862.22;;;31.01
40199;BMP280;25906;43.536;26.068;2022-08-21T10:04:07;97861.53;;;31.00
40199;BMP280;25906;43.536;26.068;2022-08-21T10:06:53;97856.13;;;30.66
40199;BMP280;25906;43.536;26.068;2022-08-21T10:09:39;97862.44;;;30.39
40199;BMP280;25906;43.536;26.068;2022-08-21T10:12:36;97859.69;;;30.37
40199;BMP280;25906;43.536;26.068;2022-08-21T10:15:41;97854.59;;;30.45
40199;BMP280;25906;43.536;26.068;2022-08-21T10:18:44;97852.81;;;30.32
40199;BMP280;25906;43.536;26.068;2022-08-21T10:30:56;97843.69;;;30.33
40199;BMP280;25906;43.536;26.068;2022-08-21T10:33:46;97831.47;;;30.75
40199;BMP280;25906;43.536;26.068;2022-08-21T10:36:46;97832.44;;;30.89
40199;BMP280;25906;43.536;26.068;2022-08-21T10:39:45;97832.94;;;30.98
40199;BMP280;25906;43.536;26.068;2022-08-21T10:48:46;97819.00;;;30.96
40199;BMP280;25906;43.536;26.068;2022-08-21T10:51:44;97822.63;;;31.17
40199;BMP280;25906;43.536;26.068;2022-08-21T10:57:44;97813.69;;;31.81
40199;BMP280;25906;43.536;26.068;2022-08-21T11:00:47;97805.47;;;31.97
40199;BMP280;25906;43.536;26.068;2022-08-21T11:03:45;97803.13;;;31.83
40199;BMP280;25906;43.536;26.068;2022-08-21T11:06:32;97807.31;;;32.04
40199;BMP280;25906;43.536;26.068;2022-08-21T11:09:21;97813.69;;;32.03
40199;BMP280;25906;43.536;26.068;2022-08-21T11:12:24;97798.31;;;31.80
40199;BMP280;25906;43.536;26.068;2022-08-21T11:15:16;97794.59;;;31.41
40199;BMP280;25906;43.536;26.068;2022-08-21T11:18:17;97803.25;;;31.55
40199;BMP280;25906;43.536;26.068;2022-08-21T11:21:42;97783.75;;;31.29
40199;BMP280;25906;43.536;26.068;2022-08-21T11:24:37;97780.72;;;30.64
40199;BMP280;25906;43.536;26.068;2022-08-21T11:27:30;97768.84;;;30.90
40199;BMP280;25906;43.536;26.068;2022-08-21T11:30:18;97771.13;;;31.08
40199;BMP280;25906;43.536;26.068;2022-08-21T11:36:25;97760.56;;;30.60
40199;BMP280;25906;43.536;26.068;2022-08-21T11:45:26;97765.88;;;30.44
40199;BMP280;25906;43.536;26.068;2022-08-21T11:51:27;97752.28;;;29.74
40199;BMP280;25906;43.536;26.068;2022-08-21T11:54:34;97755.81;;;29.70
40199;BMP280;25906;43.536;26.068;2022-08-21T11:57:37;97743.25;;;29.71
40199;BMP280;25906;43.536;26.068;2022-08-21T12:00:35;97745.69;;;29.85
40199;BMP280;25906;43.536;26.068;2022-08-21T12:03:30;97747.28;;;29.78
40199;BMP280;25906;43.536;26.068;2022-08-21T12:06:36;97731.16;;;30.09
40199;BMP280;25906;43.536;26.068;2022-08-21T12:12:23;97721.84;;;29.90
40199;BMP280;25906;43.536;26.068;2022-08-21T12:18:22;97723.22;;;29.91
40199;BMP280;25906;43.536;26.068;2022-08-21T12:24:18;97720.34;;;29.95
40199;BMP280;25906;43.536;26.068;2022-08-21T12:30:07;97717.06;;;30.15
40199;BMP280;25906;43.536;26.068;2022-08-21T12:33:17;97716.41;;;30.40
40199;BMP280;25906;43.536;26.068;2022-08-21T12:39:04;97711.22;;;30.51
40199;BMP280;25906;43.536;26.068;2022-08-21T12:42:20;97708.88;;;30.59
40199;BMP280;25906;43.536;26.068;2022-08-21T12:48:25;97702.88;;;30.49
40199;BMP280;25906;43.536;26.068;2022-08-21T12:51:15;97703.00;;;30.69
40199;BMP280;25906;43.536;26.068;2022-08-21T12:54:02;97690.97;;;30.74
40199;BMP280;25906;43.536;26.068;2022-08-21T12:56:56;97698.53;;;30.53
40199;BMP280;25906;43.536;26.068;2022-08-21T12:59:42;97701.63;;;30.18
40199;BMP280;25906;43.536;26.068;2022-08-21T13:02:32;97707.25;;;30.16
40199;BMP280;25906;43.536;26.068;2022-08-21T13:05:29;97719.53;;;30.26
40199;BMP280;25906;43.536;26.068;2022-08-21T13:08:14;97714.50;;;30.33
40199;BMP280;25906;43.536;26.068;2022-08-21T13:11:04;97719.53;;;30.26
40199;BMP280;25906;43.536;26.068;2022-08-21T13:13:51;97710.91;;;30.36
40199;BMP280;25906;43.536;26.068;2022-08-21T13:16:37;97707.75;;;30.48
40199;BMP280;25906;43.536;26.068;2022-08-21T13:19:23;97710.69;;;30.44
40199;BMP280;25906;43.536;26.068;2022-08-21T13:22:13;97721.50;;;30.32
40199;BMP280;25906;43.536;26.068;2022-08-21T13:25:00;97725.78;;;30.01
40199;BMP280;25906;43.536;26.068;2022-08-21T13:27:56;97729.66;;;29.86
40199;BMP280;25906;43.536;26.068;2022-08-21T13:30:44;97723.75;;;29.39
40199;BMP280;25906;43.536;26.068;2022-08-21T13:33:31;97719.81;;;28.94
40199;BMP280;25906;43.536;26.068;2022-08-21T13:36:25;97714.16;;;28.62
40199;BMP280;25906;43.536;26.068;2022-08-21T13:39:14;97715.88;;;28.46
40199;BMP280;25906;43.536;26.068;2022-08-21T13:42:03;97715.59;;;28.21
40199;BMP280;25906;43.536;26.068;2022-08-21T13:44:51;97730.72;;;27.92
40199;BMP280;25906;43.536;26.068;2022-08-21T13:47:37;97737.69;;;27.91
40199;BMP280;25906;43.536;26.068;2022-08-21T13:50:23;97737.88;;;27.80
40199;BMP280;25906;43.536;26.068;2022-08-21T13:53:35;97725.81;;;27.47
40199;BMP280;25906;43.536;26.068;2022-08-21T13:56:40;97723.88;;;27.38
40199;BMP280;25906;43.536;26.068;2022-08-21T13:59:33;97733.06;;;27.24
40199;BMP280;25906;43.536;26.068;2022-08-21T14:02:20;97740.09;;;27.17
40199;BMP280;25906;43.536;26.068;2022-08-21T14:05:16;97745.94;;;26.94
40199;BMP280;25906;43.536;26.068;2022-08-21T14:08:36;97760.50;;;26.94
40199;BMP280;25906;43.536;26.068;2022-08-21T14:11:22;97777.50;;;26.63
40199;BMP280;25906;43.536;26.068;2022-08-21T14:14:20;97772.63;;;26.61
40199;BMP280;25906;43.536;26.068;2022-08-21T14:17:10;97771.78;;;26.78
40199;BMP280;25906;43.536;26.068;2022-08-21T14:19:56;97778.75;;;26.76
40199;BMP280;25906;43.536;26.068;2022-08-21T14:22:44;97787.16;;;26.66
40199;BMP280;25906;43.536;26.068;2022-08-21T14:25:41;97786.69;;;26.45
40199;BMP280;25906;43.536;26.068;2022-08-21T14:28:31;97784.84;;;26.08
40199;BMP280;25906;43.536;26.068;2022-08-21T14:31:20;97779.47;;;25.79
40199;BMP280;25906;43.536;26.068;2022-08-21T14:34:07;97787.34;;;25.27
40199;BMP280;25906;43.536;26.068;2022-08-21T14:36:54;97791.50;;;25.20
40199;BMP280;25906;43.536;26.068;2022-08-21T14:39:40;97790.81;;;25.20
40199;BMP280;25906;43.536;26.068;2022-08-21T14:42:26;97779.06;;;25.21
40199;BMP280;25906;43.536;26.068;2022-08-21T14:45:25;97772.06;;;25.36
40199;BMP280;25906;43.536;26.068;2022-08-21T14:48:12;97763.78;;;25.28
40199;BMP280;25906;43.536;26.068;2022-08-21T14:50:58;97760.38;;;24.98
40199;BMP280;25906;43.536;26.068;2022-08-21T14:53:44;97752.72;;;25.14
40199;BMP280;25906;43.536;26.068;2022-08-21T14:56:29;97755.50;;;25.18
40199;BMP280;25906;43.536;26.068;2022-08-21T14:59:16;97756.09;;;25.38
40199;BMP280;25906;43.536;26.068;2022-08-21T15:02:02;97760.97;;;25.46
40199;BMP280;25906;43.536;26.068;2022-08-21T15:04:49;97751.25;;;25.41
40199;BMP280;25906;43.536;26.068;2022-08-21T15:07:34;97747.84;;;25.31
40199;BMP280;25906;43.536;26.068;2022-08-21T15:10:20;97750.66;;;25.25
40199;BMP280;25906;43.536;26.068;2022-08-21T15:13:06;97747.19;;;25.10
40199;BMP280;25906;43.536;26.068;2022-08-21T15:15:52;97741.66;;;25.08
40199;BMP280;25906;43.536;26.068;2022-08-21T15:18:41;97734.75;;;25.09
40199;BMP280;25906;43.536;26.068;2022-08-21T15:21:27;97738.19;;;25.12
40199;BMP280;25906;43.536;26.068;2022-08-21T15:24:12;97741.69;;;25.00
40199;BMP280;25906;43.536;26.068;2022-08-21T15:27:00;97745.84;;;24.90
40199;BMP280;25906;43.536;26.068;2022-08-21T15:29:45;97741.72;;;24.81
40199;BMP280;25906;43.536;26.068;2022-08-21T15:32:31;97736.91;;;24.58
40199;BMP280;25906;43.536;26.068;2022-08-21T15:35:17;97735.53;;;24.68
40199;BMP280;25906;43.536;26.068;2022-08-21T15:38:02;97733.47;;;24.53
40199;BMP280;25906;43.536;26.068;2022-08-21T15:40:48;97733.47;;;24.51
40199;BMP280;25906;43.536;26.068;2022-08-21T15:43:41;97734.16;;;24.60
40199;BMP280;25906;43.536;26.068;2022-08-21T15:46:27;97734.81;;;24.68
40199;BMP280;25906;43.536;26.068;2022-08-21T15:49:13;97737.59;;;24.76
40199;BMP280;25906;43.536;26.068;2022-08-21T15:51:58;97742.47;;;24.73
40199;BMP280;25906;43.536;26.068;2022-08-21T15:54:44;97742.44;;;24.67
40199;BMP280;25906;43.536;26.068;2022-08-21T15:57:29;97741.75;;;24.65
40199;BMP280;25906;43.536;26.068;2022-08-21T16:00:19;97741.06;;;24.68
40199;BMP280;25906;43.536;26.068;2022-08-21T16:03:08;97730.66;;;24.75
40199;BMP280;25906;43.536;26.068;2022-08-21T16:05:56;97718.94;;;24.63
40199;BMP280;25906;43.536;26.068;2022-08-21T16:08:42;97723.78;;;24.54
40199;BMP280;25906;43.536;26.068;2022-08-21T16:11:27;97721.00;;;24.27
40199;BMP280;25906;43.536;26.068;2022-08-21T16:14:14;97724.50;;;24.27
40199;BMP280;25906;43.536;26.068;2022-08-21T16:16:59;97722.41;;;24.24
40199;BMP280;25906;43.536;26.068;2022-08-21T16:19:45;97718.94;;;24.23
40199;BMP280;25906;43.536;26.068;2022-08-21T16:22:31;97712.72;;;24.19
40199;BMP280;25906;43.536;26.068;2022-08-21T16:25:17;97714.06;;;24.16
40199;BMP280;25906;43.536;26.068;2022-08-21T16:28:06;97711.31;;;24.16
40199;BMP280;25906;43.536;26.068;2022-08-21T16:30:52;97714.78;;;24.10
40199;BMP280;25906;43.536;26.068;2022-08-21T16:33:48;97707.16;;;24.07
40199;BMP280;25906;43.536;26.068;2022-08-21T16:36:34;97716.84;;;24.10
40199;BMP280;25906;43.536;26.068;2022-08-21T16:39:19;97722.38;;;24.16
40199;BMP280;25906;43.536;26.068;2022-08-21T16:42:06;97730.69;;;24.18
40199;BMP280;25906;43.536;26.068;2022-08-21T16:44:53;97730.72;;;24.24
40199;BMP280;25906;43.536;26.068;2022-08-21T16:47:39;97718.25;;;24.36
40199;BMP280;25906;43.536;26.068;2022-08-21T16:50:25;97725.16;;;24.27
40199;BMP280;25906;43.536;26.068;2022-08-21T16:53:12;97716.16;;;24.37
40199;BMP280;25906;43.536;26.068;2022-08-21T16:55:57;97724.47;;;24.37
40199;BMP280;25906;43.536;26.068;2022-08-21T16:58:44;97723.09;;;24.44